Time;durP1;ratioP1;P1;durP2;ratioP2;P2;SDS_P1;SDS_P2;PMS_P1;PMS_P2;Temp;Humidity;BMP_temperature;BMP_pressure;BME280_temperature;BME280_humidity;BME280_pressure;Samples;Min_cycle;Max_cycle;Signal;HPM_P1;HPM_P2
2022/11/18 00:02:18;;;;;;;8.27;1.75;;;;;;;;;;4913926;29;20063;-62
2022/11/18 00:04:49;;;;;;;5.63;1.88;;;;;;;;;;4913925;29;20060;-62
2022/11/18 00:07:19;;;;;;;10.50;1.95;;;;;;;;;;4898023;29;20071;-63
2022/11/18 00:09:50;;;;;;;11.77;1.67;;;;;;;;;;4913443;29;20056;-62
2022/11/18 00:15:08;;;;;;;6.60;1.80;;;;;;;;;;4944144;28;20561;-62
2022/11/18 00:17:38;;;;;;;6.65;2.00;;;;;;;;;;4951718;28;20047;-63
2022/11/18 00:20:09;;;;;;;10.57;1.50;;;;;;;;;;4935630;28;20055;-63
2022/11/18 00:22:39;;;;;;;3.72;1.50;;;;;;;;;;4974889;28;20058;-62
2022/11/18 00:25:09;;;;;;;6.05;2.20;;;;;;;;;;4990501;28;20069;-62
2022/11/18 00:27:39;;;;;;;10.43;1.52;;;;;;;;;;5002135;28;20058;-63
2022/11/18 00:30:10;;;;;;;7.18;2.25;;;;;;;;;;5009679;28;20050;-63
2022/11/18 00:32:40;;;;;;;12.07;1.73;;;;;;;;;;5021759;28;20081;-62
2022/11/18 00:35:10;;;;;;;4.75;1.45;;;;;;;;;;5009749;28;20080;-62
2022/11/18 00:37:40;;;;;;;4.05;1.33;;;;;;;;;;4990145;28;20050;-63
2022/11/18 00:40:11;;;;;;;5.68;1.42;;;;;;;;;;4990148;28;20065;-62
2022/11/18 00:42:52;;;;;;;7.43;1.55;;;;;;;;;;4990321;28;20059;-62
2022/11/18 00:45:23;;;;;;;4.75;1.40;;;;;;;;;;4989977;28;20419;-63
2022/11/18 00:47:54;;;;;;;3.42;1.30;;;;;;;;;;4970574;28;20051;-63
2022/11/18 00:50:24;;;;;;;6.25;1.58;;;;;;;;;;4970394;28;20070;-62
2022/11/18 00:52:54;;;;;;;5.07;1.60;;;;;;;;;;4970812;28;20093;-63
2022/11/18 00:55:24;;;;;;;7.50;1.58;;;;;;;;;;4933221;28;20062;-63
2022/11/18 00:57:54;;;;;;;6.55;1.23;;;;;;;;;;4900564;29;20055;-62
2022/11/18 01:00:25;;;;;;;5.38;1.52;;;;;;;;;;4932108;29;20074;-63
2022/11/18 01:02:55;;;;;;;7.05;1.27;;;;;;;;;;4932337;29;20077;-62
2022/11/18 01:05:25;;;;;;;10.10;1.60;;;;;;;;;;4932101;29;20503;-62
2022/11/18 01:07:54;;;;;;;4.47;1.45;;;;;;;;;;4942685;28;20110;-62
2022/11/18 01:10:25;;;;;;;4.40;1.40;;;;;;;;;;4954983;28;20063;-62
2022/11/18 01:15:52;;;;;;;6.00;1.38;;;;;;;;;;4970603;28;20515;-63
2022/11/18 01:18:29;;;;;;;10.57;1.55;;;;;;;;;;4970602;28;20055;-63
2022/11/18 01:21:05;;;;;;;7.55;1.30;;;;;;;;;;4970521;28;20050;-63
2022/11/18 01:23:37;;;;;;;5.07;1.55;;;;;;;;;;5003222;28;20057;-62
2022/11/18 01:26:09;;;;;;;6.43;1.90;;;;;;;;;;5022533;28;20436;-63
2022/11/18 01:28:40;;;;;;;8.68;1.40;;;;;;;;;;4993541;28;20046;-63
2022/11/18 01:31:15;;;;;;;6.97;1.90;;;;;;;;;;4993606;28;20058;-63
2022/11/18 01:33:47;;;;;;;9.70;1.85;;;;;;;;;;4961413;28;20050;-64
2022/11/18 01:36:25;;;;;;;6.05;1.50;;;;;;;;;;4973826;28;20395;-62
2022/11/18 01:38:55;;;;;;;3.38;1.42;;;;;;;;;;4974060;28;20050;-63
2022/11/18 01:41:26;;;;;;;8.52;1.52;;;;;;;;;;4974153;28;20067;-63
2022/11/18 01:44:44;;;;;;;3.15;1.17;;;;;;;;;;4950837;29;20563;-68
2022/11/18 01:47:14;;;;;;;3.75;1.27;;;;;;;;;;4935578;29;20060;-62
2022/11/18 01:49:45;;;;;;;4.10;2.15;;;;;;;;;;4919549;29;20051;-62
2022/11/18 01:52:15;;;;;;;4.43;1.08;;;;;;;;;;4935507;29;20055;-62
2022/11/18 01:54:52;;;;;;;6.03;1.95;;;;;;;;;;4950948;29;20532;-63
2022/11/18 01:57:26;;;;;;;3.22;1.10;;;;;;;;;;4935472;29;20059;-62
2022/11/18 02:00:00;;;;;;;5.90;1.50;;;;;;;;;;4935284;29;20072;-63
2022/11/18 02:02:34;;;;;;;9.95;1.70;;;;;;;;;;4935598;29;20118;-62
2022/11/18 02:05:09;;;;;;;4.57;1.95;;;;;;;;;;4954725;28;20431;-62
2022/11/18 02:07:42;;;;;;;5.60;1.38;;;;;;;;;;4979923;28;20057;-63
2022/11/18 02:10:21;;;;;;;6.32;1.38;;;;;;;;;;5012286;28;20560;-62
2022/11/18 02:12:54;;;;;;;7.18;1.40;;;;;;;;;;4966488;28;20073;-62
2022/11/18 02:16:01;;;;;;;9.18;1.38;;;;;;;;;;5052152;28;20064;-62
2022/11/18 02:18:48;;;;;;;6.85;1.90;;;;;;;;;;4944771;28;20442;-62
2022/11/18 02:21:41;;;;;;;6.28;1.27;;;;;;;;;;5007673;28;20221;-63
2022/11/18 02:24:40;;;;;;;6.57;1.25;;;;;;;;;;5032054;28;20417;-63
2022/11/18 02:27:36;;;;;;;8.05;1.42;;;;;;;;;;5012075;28;20054;-62
2022/11/18 02:30:09;;;;;;;4.18;1.30;;;;;;;;;;4953775;29;20799;-65
2022/11/18 02:33:12;;;;;;;6.22;1.35;;;;;;;;;;4905932;29;20062;-63
2022/11/18 02:36:06;;;;;;;7.57;1.63;;;;;;;;;;4877857;29;20075;-63
2022/11/18 02:38:48;;;;;;;4.55;1.52;;;;;;;;;;4877926;29;20071;-63
2022/11/18 02:41:26;;;;;;;3.05;1.35;;;;;;;;;;4878157;29;20072;-63
2022/11/18 02:44:03;;;;;;;5.32;1.70;;;;;;;;;;4878065;29;20057;-62
2022/11/18 02:46:35;;;;;;;4.22;1.38;;;;;;;;;;4877669;29;20060;-63
2022/11/18 02:49:08;;;;;;;;;;;;;;;;;;4878515;29;20056;-62
2022/11/18 02:51:41;;;;;;;6.50;1.80;;;;;;;;;;4893110;29;19924;-64
2022/11/18 02:54:13;;;;;;;5.55;2.25;;;;;;;;;;4896367;29;20122;-63
2022/11/18 02:56:45;;;;;;;7.53;1.50;;;;;;;;;;4896362;29;20052;-63
2022/11/18 02:59:19;;;;;;;5.38;1.65;;;;;;;;;;4915283;29;20060;-62
2022/11/18 03:01:50;;;;;;;7.32;2.40;;;;;;;;;;4933978;29;20066;-62
2022/11/18 03:04:22;;;;;;;5.80;1.75;;;;;;;;;;4939897;29;20623;-62
2022/11/18 03:07:28;;;;;;;8.27;2.13;;;;;;;;;;4962721;28;20576;-63
2022/11/18 03:10:01;;;;;;;3.40;1.27;;;;;;;;;;4991739;28;20458;-63
2022/11/18 03:12:48;;;;;;;7.78;1.83;;;;;;;;;;5029250;28;20065;-63
2022/11/18 03:15:47;;;;;;;5.22;1.60;;;;;;;;;;4998348;28;20053;-64
2022/11/18 03:18:37;;;;;;;6.43;1.33;;;;;;;;;;5031024;28;20136;-63
2022/11/18 03:21:13;;;;;;;9.40;1.40;;;;;;;;;;5031160;28;20406;-62
2022/11/18 03:23:57;;;;;;;8.35;1.45;;;;;;;;;;5031005;28;20599;-63
2022/11/18 03:26:38;;;;;;;6.93;1.70;;;;;;;;;;5030891;28;20146;-63
2022/11/18 03:29:26;;;;;;;5.55;1.48;;;;;;;;;;4975143;28;20082;-64
2022/11/18 03:32:04;;;;;;;7.25;1.33;;;;;;;;;;4969759;28;20053;-63
2022/11/18 03:34:46;;;;;;;5.32;1.40;;;;;;;;;;4995213;28;20058;-62
2022/11/18 03:37:19;;;;;;;5.50;1.85;;;;;;;;;;5010820;28;20054;-64
2022/11/18 03:39:54;;;;;;;8.45;1.73;;;;;;;;;;5037528;28;20556;-63
2022/11/18 03:42:35;;;;;;;6.45;1.52;;;;;;;;;;5034173;28;20057;-63
2022/11/18 03:45:12;;;;;;;4.53;1.40;;;;;;;;;;5033571;28;20061;-63
2022/11/18 03:48:16;;;;;;;4.88;1.40;;;;;;;;;;5030371;28;20053;-63
2022/11/18 03:51:01;;;;;;;5.57;1.58;;;;;;;;;;4952144;29;20055;-62
2022/11/18 03:53:36;;;;;;;5.93;1.40;;;;;;;;;;4936283;29;20055;-66
2022/11/18 03:56:16;;;;;;;5.25;1.38;;;;;;;;;;4952433;29;20051;-63
2022/11/18 03:59:06;;;;;;;5.90;1.70;;;;;;;;;;4952257;29;20596;-63
2022/11/18 04:02:02;;;;;;;5.38;1.70;;;;;;;;;;4952352;29;20058;-62
2022/11/18 04:04:34;;;;;;;6.03;1.55;;;;;;;;;;4894876;29;20386;-63
2022/11/18 04:07:16;;;;;;;3.20;1.15;;;;;;;;;;4871633;29;20518;-63
2022/11/18 04:09:57;;;;;;;7.85;1.67;;;;;;;;;;4894844;29;20057;-62
2022/11/18 04:12:32;;;;;;;6.72;1.52;;;;;;;;;;4876103;29;20135;-63
2022/11/18 04:15:02;;;;;;;4.07;1.40;;;;;;;;;;4876082;29;20067;-64
2022/11/18 04:17:33;;;;;;;5.35;1.20;;;;;;;;;;4845210;29;20060;-64
2022/11/18 04:20:03;;;;;;;4.00;1.50;;;;;;;;;;4857508;29;20057;-64
2022/11/18 04:22:51;;;;;;;4.38;1.50;;;;;;;;;;4858122;29;20049;-64
2022/11/18 04:25:23;;;;;;;2.38;1.20;;;;;;;;;;4843522;29;20061;-63
2022/11/18 04:27:53;;;;;;;6.43;1.50;;;;;;;;;;4894667;29;20064;-64
2022/11/18 04:30:23;;;;;;;7.78;1.55;;;;;;;;;;4894870;29;20079;-63
2022/11/18 04:32:53;;;;;;;4.28;1.45;;;;;;;;;;4894579;29;20060;-63
2022/11/18 04:35:24;;;;;;;2.95;1.23;;;;;;;;;;4894612;29;20060;-67
2022/11/18 04:37:55;;;;;;;6.63;1.33;;;;;;;;;;4894569;29;20103;-64
2022/11/18 04:40:25;;;;;;;4.53;1.08;;;;;;;;;;4894693;29;20075;-64
2022/11/18 04:42:55;;;;;;;3.95;1.60;;;;;;;;;;4940672;29;20059;-65
2022/11/18 04:45:25;;;;;;;4.65;1.25;;;;;;;;;;4951505;29;20055;-65
2022/11/18 04:47:56;;;;;;;4.00;1.25;;;;;;;;;;4978791;28;20101;-65
2022/11/18 04:50:31;;;;;;;3.70;1.38;;;;;;;;;;4990325;28;20050;-64
2022/11/18 04:53:01;;;;;;;4.63;1.60;;;;;;;;;;4947436;28;20674;-64
2022/11/18 04:55:34;;;;;;;8.70;1.65;;;;;;;;;;4970759;28;20070;-65
2022/11/18 04:58:04;;;;;;;4.13;1.60;;;;;;;;;;5009544;28;20531;-66
2022/11/18 05:00:35;;;;;;;5.97;1.60;;;;;;;;;;5029544;28;20046;-64
2022/11/18 05:03:05;;;;;;;3.92;1.85;;;;;;;;;;5029383;28;20524;-65
2022/11/18 05:05:35;;;;;;;4.80;1.52;;;;;;;;;;5029399;28;20061;-65
2022/11/18 05:08:05;;;;;;;8.57;1.83;;;;;;;;;;5029313;28;20489;-64
2022/11/18 05:10:37;;;;;;;6.35;1.88;;;;;;;;;;5034521;28;20060;-64
2022/11/18 05:13:07;;;;;;;4.63;1.48;;;;;;;;;;5049233;28;20052;-64
2022/11/18 05:15:37;;;;;;;8.20;1.30;;;;;;;;;;5009274;28;20050;-64
2022/11/18 05:18:10;;;;;;;5.85;1.90;;;;;;;;;;5009382;28;20627;-65
2022/11/18 05:20:40;;;;;;;3.40;1.40;;;;;;;;;;5009506;28;20057;-65
2022/11/18 05:23:10;;;;;;;6.93;1.90;;;;;;;;;;5009428;28;20050;-64
2022/11/18 05:25:40;;;;;;;5.93;1.70;;;;;;;;;;5009591;28;20057;-65
2022/11/18 05:28:10;;;;;;;4.75;1.58;;;;;;;;;;4976436;28;20057;-65
2022/11/18 05:30:40;;;;;;;7.57;1.40;;;;;;;;;;4996719;28;20061;-65
2022/11/18 05:33:10;;;;;;;4.60;1.42;;;;;;;;;;4979782;28;20053;-65
2022/11/18 05:35:40;;;;;;;3.75;1.35;;;;;;;;;;5029041;28;20116;-65
2022/11/18 05:38:10;;;;;;;3.65;1.58;;;;;;;;;;5028903;28;20057;-65
2022/11/18 05:40:42;;;;;;;6.40;1.90;;;;;;;;;;5029118;28;20049;-65
2022/11/18 05:43:12;;;;;;;4.10;1.30;;;;;;;;;;5012879;28;20520;-65
2022/11/18 05:45:43;;;;;;;11.10;1.58;;;;;;;;;;5029046;28;20062;-66
2022/11/18 05:48:13;;;;;;;5.00;1.63;;;;;;;;;;4995971;28;20446;-66
2022/11/18 05:50:47;;;;;;;5.13;1.45;;;;;;;;;;4973222;28;20061;-65
2022/11/18 05:53:19;;;;;;;4.93;1.67;;;;;;;;;;4947554;28;20051;-65
2022/11/18 05:56:26;;;;;;;5.72;1.40;;;;;;;;;;4970230;28;20046;-66
2022/11/18 05:58:56;;;;;;;3.63;1.52;;;;;;;;;;4970210;28;20091;-64
2022/11/18 06:01:30;;;;;;;4.65;1.80;;;;;;;;;;4970247;28;20055;-65
2022/11/18 06:04:05;;;;;;;5.65;1.98;;;;;;;;;;4953950;28;20598;-65
2022/11/18 06:06:37;;;;;;;4.57;1.70;;;;;;;;;;5002541;28;20058;-66
2022/11/18 06:09:10;;;;;;;5.93;2.17;;;;;;;;;;5012229;28;20057;-65
2022/11/18 06:11:44;;;;;;;7.75;2.40;;;;;;;;;;5029329;28;20072;-65
2022/11/18 06:14:23;;;;;;;6.93;2.35;;;;;;;;;;5032367;28;20543;-65
2022/11/18 06:16:54;;;;;;;;;;;;;;;;;;4967821;28;20065;-65
2022/11/18 06:19:25;;;;;;;10.80;2.75;;;;;;;;;;5032253;28;19925;-66
2022/11/18 06:21:57;;;;;;;5.75;1.80;;;;;;;;;;4979366;28;20042;-65
2022/11/18 06:24:28;;;;;;;8.60;2.20;;;;;;;;;;5012311;28;20050;-65
2022/11/18 06:26:59;;;;;;;3.28;1.63;;;;;;;;;;5012073;28;20058;-65
2022/11/18 06:29:31;;;;;;;4.97;1.67;;;;;;;;;;5031413;28;20057;-65
2022/11/18 06:32:01;;;;;;;3.88;1.80;;;;;;;;;;5031600;28;20046;-66
2022/11/18 06:34:31;;;;;;;7.20;2.08;;;;;;;;;;5015361;28;20053;-65
2022/11/18 06:37:16;;;;;;;7.43;2.17;;;;;;;;;;5016584;28;20056;-65
2022/11/18 06:39:47;;;;;;;5.93;2.15;;;;;;;;;;4995963;28;20520;-66
2022/11/18 06:45:06;;;;;;;6.00;2.17;;;;;;;;;;4940853;28;20059;-65
2022/11/18 06:47:36;;;;;;;7.78;2.63;;;;;;;;;;4953324;29;20059;-65
2022/11/18 06:50:06;;;;;;;6.22;1.95;;;;;;;;;;4953532;29;20055;-65
2022/11/18 06:52:36;;;;;;;5.82;2.25;;;;;;;;;;4902394;29;20051;-66
2022/11/18 06:55:07;;;;;;;5.18;2.20;;;;;;;;;;4934533;29;20063;-65
2022/11/18 06:57:38;;;;;;;6.82;1.85;;;;;;;;;;4934009;29;20056;-65
2022/11/18 07:00:09;;;;;;;5.22;1.65;;;;;;;;;;4932488;28;20063;-65
2022/11/18 07:02:39;;;;;;;4.65;1.80;;;;;;;;;;4953579;28;20176;-65
2022/11/18 07:05:09;;;;;;;6.47;1.88;;;;;;;;;;4953278;28;20059;-65
2022/11/18 07:07:39;;;;;;;4.38;2.00;;;;;;;;;;4953168;28;20059;-65
2022/11/18 07:10:10;;;;;;;4.93;1.70;;;;;;;;;;4954446;28;20051;-65
2022/11/18 07:12:41;;;;;;;6.82;1.90;;;;;;;;;;4940071;28;20062;-65
2022/11/18 07:15:11;;;;;;;5.28;1.80;;;;;;;;;;4972572;28;20062;-65
2022/11/18 07:17:41;;;;;;;9.57;1.67;;;;;;;;;;4972126;28;20055;-67
2022/11/18 07:20:11;;;;;;;7.18;1.60;;;;;;;;;;4951559;28;20054;-65
2022/11/18 07:22:41;;;;;;;3.38;1.42;;;;;;;;;;4952887;28;20195;-65
2022/11/18 07:25:11;;;;;;;4.93;1.95;;;;;;;;;;4971950;28;20069;-65
2022/11/18 07:27:42;;;;;;;7.82;2.22;;;;;;;;;;4991530;28;20204;-65
2022/11/18 07:30:13;;;;;;;8.07;2.45;;;;;;;;;;5000897;28;20061;-65
2022/11/18 07:32:43;;;;;;;7.07;1.88;;;;;;;;;;5011073;28;20069;-65
2022/11/18 07:35:13;;;;;;;8.20;2.80;;;;;;;;;;5011162;28;20069;-65
2022/11/18 07:37:43;;;;;;;5.53;1.90;;;;;;;;;;4994903;28;20079;-66
2022/11/18 07:40:13;;;;;;;6.38;1.65;;;;;;;;;;5011070;28;20062;-65
2022/11/18 07:42:43;;;;;;;3.53;1.60;;;;;;;;;;5010880;28;20486;-65
2022/11/18 07:45:23;;;;;;;3.83;1.60;;;;;;;;;;5010905;28;20054;-65
2022/11/18 07:47:54;;;;;;;4.38;1.63;;;;;;;;;;5021285;28;20552;-65
2022/11/18 07:50:24;;;;;;;3.45;1.60;;;;;;;;;;5030624;28;20054;-65
2022/11/18 07:52:57;;;;;;;5.78;1.70;;;;;;;;;;5030449;28;20053;-65
2022/11/18 07:55:27;;;;;;;9.27;1.70;;;;;;;;;;5030458;28;20046;-65
2022/11/18 07:58:00;;;;;;;7.13;2.22;;;;;;;;;;5054845;28;20055;-65
2022/11/18 08:00:30;;;;;;;6.75;2.08;;;;;;;;;;5072730;28;20048;-65
2022/11/18 08:03:01;;;;;;;5.57;2.13;;;;;;;;;;5072467;28;20051;-66
2022/11/18 08:05:31;;;;;;;3.72;1.60;;;;;;;;;;5072803;28;20036;-65
2022/11/18 08:08:01;;;;;;;5.00;1.90;;;;;;;;;;5072250;28;20423;-65
2022/11/18 08:10:32;;;;;;;6.00;2.05;;;;;;;;;;5077475;28;20528;-65
2022/11/18 08:13:03;;;;;;;4.20;1.85;;;;;;;;;;5057145;28;20063;-67
2022/11/18 08:15:33;;;;;;;4.70;1.65;;;;;;;;;;5075038;28;20051;-65
2022/11/18 08:18:03;;;;;;;7.28;2.20;;;;;;;;;;5040187;28;20056;-66
2022/11/18 08:20:41;;;;;;;5.63;2.08;;;;;;;;;;5092780;28;20047;-65
2022/11/18 08:23:13;;;;;;;5.80;2.05;;;;;;;;;;5092423;28;20048;-65
2022/11/18 08:25:44;;;;;;;6.60;2.08;;;;;;;;;;5092314;28;20043;-66
2022/11/18 08:28:15;;;;;;;6.78;2.17;;;;;;;;;;5040285;28;20052;-65
2022/11/18 08:30:46;;;;;;;6.13;1.95;;;;;;;;;;5091855;28;20496;-65
2022/11/18 08:33:16;;;;;;;5.53;1.92;;;;;;;;;;5092362;28;20040;-66
2022/11/18 08:35:46;;;;;;;6.90;1.80;;;;;;;;;;5073541;28;20067;-65
2022/11/18 08:38:17;;;;;;;9.00;2.15;;;;;;;;;;5035817;28;20051;-65
2022/11/18 08:40:47;;;;;;;5.00;1.92;;;;;;;;;;5069693;28;20057;-65
2022/11/18 08:43:17;;;;;;;4.53;1.90;;;;;;;;;;5069396;28;20052;-65
2022/11/18 08:45:48;;;;;;;6.15;2.40;;;;;;;;;;5029458;28;20061;-65
2022/11/18 08:48:19;;;;;;;7.05;2.00;;;;;;;;;;5029589;28;20068;-65
2022/11/18 08:50:49;;;;;;;7.00;2.67;;;;;;;;;;5029856;28;20498;-65
2022/11/18 08:53:19;;;;;;;6.95;2.17;;;;;;;;;;5029522;28;20525;-65
2022/11/18 08:55:58;;;;;;;3.50;1.55;;;;;;;;;;5009519;28;20054;-65
2022/11/18 08:58:30;;;;;;;6.40;1.90;;;;;;;;;;5009629;28;20058;-65
2022/11/18 09:01:07;;;;;;;5.63;1.77;;;;;;;;;;4977163;28;20058;-65
2022/11/18 09:03:38;;;;;;;5.65;1.65;;;;;;;;;;5009573;28;20058;-64
2022/11/18 09:06:10;;;;;;;5.70;2.17;;;;;;;;;;5009576;28;20072;-65
2022/11/18 09:08:42;;;;;;;10.15;3.08;;;;;;;;;;5009859;28;20608;-66
2022/11/18 09:11:19;;;;;;;5.28;1.95;;;;;;;;;;5009472;28;20088;-66
2022/11/18 09:13:55;;;;;;;4.28;1.98;;;;;;;;;;4977196;28;20050;-66
2022/11/18 09:16:45;;;;;;;6.47;2.00;;;;;;;;;;5026494;28;20045;-65
2022/11/18 09:19:17;;;;;;;5.68;1.83;;;;;;;;;;4989774;28;20050;-64
2022/11/18 09:22:08;;;;;;;5.30;1.73;;;;;;;;;;4950961;28;20051;-64
2022/11/18 09:24:39;;;;;;;3.75;1.70;;;;;;;;;;4970599;28;20419;-64
2022/11/18 09:27:09;;;;;;;4.80;1.67;;;;;;;;;;4954147;28;20590;-65
2022/11/18 09:29:45;;;;;;;5.07;1.63;;;;;;;;;;4970465;28;20055;-64
2022/11/18 09:32:15;;;;;;;6.00;1.90;;;;;;;;;;4954433;28;20051;-64
2022/11/18 09:34:46;;;;;;;7.45;2.42;;;;;;;;;;4957487;28;20054;-64
2022/11/18 09:37:16;;;;;;;7.18;2.40;;;;;;;;;;4989779;28;20058;-63
2022/11/18 09:39:46;;;;;;;6.20;2.10;;;;;;;;;;4989799;28;20582;-64
2022/11/18 09:42:28;;;;;;;7.00;3.08;;;;;;;;;;4990109;28;20438;-63
2022/11/18 09:45:05;;;;;;;5.78;2.17;;;;;;;;;;4993659;28;20054;-63
2022/11/18 09:47:43;;;;;;;6.10;2.33;;;;;;;;;;4993361;28;20467;-63
2022/11/18 09:50:16;;;;;;;6.72;2.20;;;;;;;;;;4993545;28;20065;-63
2022/11/18 09:53:16;;;;;;;4.88;1.73;;;;;;;;;;4993561;28;20569;-63
2022/11/18 09:55:49;;;;;;;9.55;2.05;;;;;;;;;;4995407;28;20057;-63
2022/11/18 09:58:37;;;;;;;7.57;1.80;;;;;;;;;;5032688;28;20053;-64
2022/11/18 10:01:18;;;;;;;6.32;1.63;;;;;;;;;;5035569;28;20045;-63
2022/11/18 10:03:49;;;;;;;4.25;1.60;;;;;;;;;;5052601;28;20061;-65
2022/11/18 10:06:28;;;;;;;4.25;2.10;;;;;;;;;;5052505;28;20057;-64
2022/11/18 10:09:19;;;;;;;7.22;1.70;;;;;;;;;;5052457;28;20049;-64
2022/11/18 10:12:07;;;;;;;5.05;1.80;;;;;;;;;;5035903;28;20061;-63
2022/11/18 10:15:03;;;;;;;5.43;1.90;;;;;;;;;;5052551;28;20392;-65
2022/11/18 10:18:00;;;;;;;6.55;1.73;;;;;;;;;;5052207;28;20049;-63
2022/11/18 10:21:03;;;;;;;5.05;2.28;;;;;;;;;;5052187;28;20046;-63
2022/11/18 10:23:48;;;;;;;3.88;1.60;;;;;;;;;;5012454;28;20163;-63
2022/11/18 10:26:39;;;;;;;5.15;2.10;;;;;;;;;;5012334;28;20171;-63
2022/11/18 10:29:10;;;;;;;4.78;1.98;;;;;;;;;;4995486;28;20045;-63
2022/11/18 10:31:52;;;;;;;3.97;1.45;;;;;;;;;;5012441;28;20065;-63
2022/11/18 10:34:27;;;;;;;9.57;2.15;;;;;;;;;;5012130;28;20054;-62
2022/11/18 10:37:03;;;;;;;3.25;1.60;;;;;;;;;;5012298;28;20052;-63
2022/11/18 10:39:48;;;;;;;5.50;1.73;;;;;;;;;;4979530;28;20058;-63
2022/11/18 10:42:45;;;;;;;6.78;1.63;;;;;;;;;;5012177;28;20529;-62
2022/11/18 10:45:31;;;;;;;8.75;2.40;;;;;;;;;;4980734;28;20054;-63
2022/11/18 10:48:20;;;;;;;6.25;2.00;;;;;;;;;;5011867;28;20072;-62
2022/11/18 10:50:51;;;;;;;7.93;1.90;;;;;;;;;;5012062;28;20054;-63
2022/11/18 10:53:36;;;;;;;6.90;1.50;;;;;;;;;;4956210;28;20054;-63
2022/11/18 10:56:10;;;;;;;5.20;1.50;;;;;;;;;;4972714;28;20058;-62
2022/11/18 10:58:44;;;;;;;4.95;1.50;;;;;;;;;;4972811;28;20419;-62
2022/11/18 11:01:23;;;;;;;5.43;1.15;;;;;;;;;;5023296;28;20524;-63
2022/11/18 11:04:20;;;;;;;15.13;5.55;;;;;;;;;;5031601;28;20465;-63
2022/11/18 11:06:51;;;;;;;35.13;17.55;;;;;;;;;;5041638;28;20160;-63
2022/11/18 11:09:29;;;;;;;13.35;4.95;;;;;;;;;;5051421;28;20128;-63
2022/11/18 11:12:11;;;;;;;;;;;;;;;;;;5034821;28;20060;-63
2022/11/18 11:14:51;;;;;;;7.15;1.55;;;;;;;;;;5051307;28;19921;-63
2022/11/18 11:18:40;;;;;;;6.63;1.50;;;;;;;;;;5031099;28;20060;-63
2022/11/18 11:20:41;;;;;;;5.07;1.48;;;;;;;;;;5031069;28;20056;-63
2022/11/18 11:23:14;;;;;;;3.42;0.93;;;;;;;;;;5014536;28;20627;-63
2022/11/18 11:26:29;;;;;;;3.83;0.98;;;;;;;;;;5031119;28;20049;-63
2022/11/18 11:29:44;;;;;;;5.78;1.00;;;;;;;;;;4971954;28;20085;-63
2022/11/18 11:32:36;;;;;;;6.60;1.17;;;;;;;;;;4952964;28;20451;-63
2022/11/18 11:35:15;;;;;;;3.55;0.93;;;;;;;;;;4952690;29;20055;-63
2022/11/18 11:37:54;;;;;;;5.22;0.90;;;;;;;;;;4952703;29;20063;-63
2022/11/18 11:40:58;;;;;;;3.92;1.40;;;;;;;;;;4952444;29;20058;-65
2022/11/18 11:43:56;;;;;;;3.00;0.60;;;;;;;;;;4952856;29;20063;-63
2022/11/18 11:50:15;;;;;;;4.45;0.70;;;;;;;;;;4991247;28;20056;-64
2022/11/18 11:53:03;;;;;;;2.97;0.70;;;;;;;;;;4991419;28;20054;-64
2022/11/18 11:55:33;;;;;;;1.35;0.63;;;;;;;;;;4991070;28;20050;-63
2022/11/18 11:58:37;;;;;;;2.75;0.60;;;;;;;;;;4991148;28;20096;-63
2022/11/18 12:01:50;;;;;;;1.48;0.63;;;;;;;;;;4932868;29;20095;-63
2022/11/18 12:04:42;;;;;;;2.22;0.60;;;;;;;;;;4830749;29;20057;-63
2022/11/18 12:07:23;;;;;;;2.53;0.57;;;;;;;;;;4947721;28;20059;-63
2022/11/18 12:10:17;;;;;;;1.20;0.60;;;;;;;;;;4971565;28;20046;-63
2022/11/18 12:13:16;;;;;;;2.15;0.93;;;;;;;;;;4971328;28;20054;-63
2022/11/18 12:16:14;;;;;;;5.78;2.08;;;;;;;;;;4939245;28;20529;-63
2022/11/18 12:18:53;;;;;;;;;;;;;;;;;;4971806;28;20058;-64
2022/11/18 12:21:46;;;;;;;11.15;4.80;;;;;;;;;;4971282;28;20298;-63
2022/11/18 12:24:37;;;;;;;1.92;0.73;;;;;;;;;;4971114;28;20051;-63
2022/11/18 12:27:26;;;;;;;7.53;3.97;;;;;;;;;;4971357;28;20395;-64
2022/11/18 12:30:02;;;;;;;1.70;0.90;;;;;;;;;;4971219;28;20059;-64
2022/11/18 12:32:41;;;;;;;2.83;0.70;;;;;;;;;;4923117;28;20053;-62
2022/11/18 12:35:13;;;;;;;2.95;1.70;;;;;;;;;;4971229;28;20058;-63
2022/11/18 12:37:45;;;;;;;1.77;0.52;;;;;;;;;;4972450;28;20427;-63
2022/11/18 12:40:35;;;;;;;1.45;0.52;;;;;;;;;;4994201;28;20050;-63
2022/11/18 12:43:46;;;;;;;4.38;1.45;;;;;;;;;;4977534;28;20581;-63
2022/11/18 12:46:35;;;;;;;1.80;0.93;;;;;;;;;;4977442;28;20577;-63
2022/11/18 12:49:23;;;;;;;2.15;0.50;;;;;;;;;;4997818;28;20057;-63
2022/11/18 12:51:56;;;;;;;2.15;0.60;;;;;;;;;;5029489;28;20470;-63
2022/11/18 12:54:29;;;;;;;2.88;0.60;;;;;;;;;;5029548;28;20065;-62
2022/11/18 12:57:02;;;;;;;2.55;0.60;;;;;;;;;;4981368;28;20202;-65
2022/11/18 12:59:35;;;;;;;1.52;0.43;;;;;;;;;;5029593;28;20049;-63
2022/11/18 13:02:27;;;;;;;2.30;0.68;;;;;;;;;;5029497;28;20042;-64
2022/11/18 13:05:09;;;;;;;0.98;0.60;;;;;;;;;;4981316;28;20045;-64
2022/11/18 13:10:38;;;;;;;2.50;1.30;;;;;;;;;;4996379;28;20058;-63
2022/11/18 13:13:32;;;;;;;2.30;0.70;;;;;;;;;;4973894;28;20495;-64
2022/11/18 13:19:06;;;;;;;3.33;0.60;;;;;;;;;;4897286;29;20048;-63
2022/11/18 13:24:25;;;;;;;3.42;0.70;;;;;;;;;;4866787;29;20619;-63
2022/11/18 13:26:57;;;;;;;6.28;3.90;;;;;;;;;;4928249;29;20051;-64
2022/11/18 13:29:49;;;;;;;4.07;0.80;;;;;;;;;;4920382;29;20099;-63
2022/11/18 13:32:26;;;;;;;1.10;0.57;;;;;;;;;;4897752;29;20057;-64
2022/11/18 13:35:15;;;;;;;1.77;0.60;;;;;;;;;;4897912;29;20069;-63
2022/11/18 13:37:58;;;;;;;2.15;0.60;;;;;;;;;;4897754;29;20053;-63
2022/11/18 13:40:37;;;;;;;1.60;0.43;;;;;;;;;;4897752;29;20052;-64
2022/11/18 13:43:10;;;;;;;1.23;0.90;;;;;;;;;;4897665;29;20449;-64
2022/11/18 13:45:41;;;;;;;2.05;0.50;;;;;;;;;;4897326;29;20048;-64
2022/11/18 13:48:14;;;;;;;1.95;0.77;;;;;;;;;;4897445;29;20056;-67
2022/11/18 13:50:51;;;;;;;3.30;0.90;;;;;;;;;;4884365;29;20048;-64
2022/11/18 13:53:32;;;;;;;1.45;0.60;;;;;;;;;;4968488;28;20399;-63
2022/11/18 13:56:27;;;;;;;5.63;0.60;;;;;;;;;;4997804;28;20058;-63
2022/11/18 13:59:04;;;;;;;4.65;0.65;;;;;;;;;;4980265;28;20061;-65
2022/11/18 14:01:59;;;;;;;1.98;0.60;;;;;;;;;;5012802;28;20045;-64
2022/11/18 14:04:31;;;;;;;1.55;0.50;;;;;;;;;;5022001;28;20057;-64
2022/11/18 14:07:23;;;;;;;1.10;0.60;;;;;;;;;;4999743;28;20057;-64
2022/11/18 14:10:03;;;;;;;4.45;0.77;;;;;;;;;;5041449;28;20049;-64
2022/11/18 14:12:35;;;;;;;1.67;0.70;;;;;;;;;;5032197;28;20052;-63
2022/11/18 14:15:19;;;;;;;1.52;0.63;;;;;;;;;;5032316;28;20053;-64
2022/11/18 14:17:52;;;;;;;2.50;0.80;;;;;;;;;;4999517;28;20050;-64
2022/11/18 14:20:25;;;;;;;1.40;0.50;;;;;;;;;;4967398;28;20049;-64
2022/11/18 14:23:01;;;;;;;2.33;0.60;;;;;;;;;;5025803;28;20057;-63
2022/11/18 14:25:35;;;;;;;1.15;0.60;;;;;;;;;;5027323;28;20061;-64
2022/11/18 14:28:35;;;;;;;1.92;0.60;;;;;;;;;;5002374;28;20053;-64
2022/11/18 14:31:06;;;;;;;1.17;0.60;;;;;;;;;;5052050;28;20064;-63
2022/11/18 14:33:38;;;;;;;1.60;0.60;;;;;;;;;;5002743;28;20057;-63
2022/11/18 14:36:16;;;;;;;4.13;0.47;;;;;;;;;;4992492;28;20061;-63
2022/11/18 14:38:51;;;;;;;1.00;0.50;;;;;;;;;;4976851;28;20065;-64
2022/11/18 14:41:47;;;;;;;1.38;0.50;;;;;;;;;;4992444;28;20062;-63
2022/11/18 14:44:19;;;;;;;0.90;0.70;;;;;;;;;;4992920;28;20065;-63
2022/11/18 14:46:52;;;;;;;3.42;1.00;;;;;;;;;;4992389;28;20050;-63
2022/11/18 14:49:24;;;;;;;3.78;1.67;;;;;;;;;;4995693;28;20076;-63
2022/11/18 14:51:55;;;;;;;1.70;0.73;;;;;;;;;;5011935;28;20042;-63
2022/11/18 14:54:26;;;;;;;3.15;1.00;;;;;;;;;;4995599;28;20505;-63
2022/11/18 14:57:00;;;;;;;4.28;1.10;;;;;;;;;;4979713;28;20060;-63
2022/11/18 14:59:31;;;;;;;2.08;0.90;;;;;;;;;;5012056;28;20042;-63
2022/11/18 15:02:01;;;;;;;3.97;1.40;;;;;;;;;;4991824;28;20427;-65
2022/11/18 15:04:31;;;;;;;3.70;1.92;;;;;;;;;;4992313;28;20065;-63
2022/11/18 15:07:01;;;;;;;2.10;0.93;;;;;;;;;;4991683;28;20487;-64
2022/11/18 15:09:31;;;;;;;5.22;1.08;;;;;;;;;;4992191;28;20062;-63
2022/11/18 15:12:02;;;;;;;3.13;1.25;;;;;;;;;;4991876;28;20197;-62
2022/11/18 15:14:34;;;;;;;5.10;1.10;;;;;;;;;;5041258;28;20441;-63
2022/11/18 15:17:04;;;;;;;2.85;1.10;;;;;;;;;;5030979;28;20060;-63
2022/11/18 15:19:36;;;;;;;4.20;1.10;;;;;;;;;;5031199;28;20064;-66
2022/11/18 15:22:06;;;;;;;1.52;0.63;;;;;;;;;;5031104;28;20046;-63
2022/11/18 15:24:37;;;;;;;3.33;0.77;;;;;;;;;;4962547;28;20383;-63
2022/11/18 15:27:09;;;;;;;2.20;1.02;;;;;;;;;;5011361;28;20061;-63
2022/11/18 15:29:39;;;;;;;1.85;0.77;;;;;;;;;;4978601;28;20061;-63
2022/11/18 15:32:09;;;;;;;1.58;0.70;;;;;;;;;;5011064;28;20105;-66
2022/11/18 15:34:40;;;;;;;2.08;0.77;;;;;;;;;;5011131;28;20060;-63
2022/11/18 15:37:11;;;;;;;2.42;0.80;;;;;;;;;;5010820;28;20065;-66
2022/11/18 15:39:43;;;;;;;1.95;0.63;;;;;;;;;;5000312;28;20061;-63
2022/11/18 15:42:13;;;;;;;1.85;0.73;;;;;;;;;;4991098;28;20058;-64
2022/11/18 15:44:51;;;;;;;1.25;0.60;;;;;;;;;;4955582;28;20047;-63
2022/11/18 15:47:20;;;;;;;2.63;1.05;;;;;;;;;;4971747;28;20414;-64
2022/11/18 15:49:50;;;;;;;2.40;0.50;;;;;;;;;;4923785;28;20062;-63
2022/11/18 15:52:20;;;;;;;4.32;0.80;;;;;;;;;;4939454;28;20127;-64
2022/11/18 15:54:50;;;;;;;1.17;0.70;;;;;;;;;;4966256;28;20417;-64
2022/11/18 15:57:21;;;;;;;1.70;0.68;;;;;;;;;;4974584;28;20050;-63
2022/11/18 15:59:50;;;;;;;1.05;0.65;;;;;;;;;;4991144;28;20070;-64
2022/11/18 16:02:20;;;;;;;3.42;0.55;;;;;;;;;;4937950;29;20066;-64